sensor_id;sensor_type;location;lat;lon;timestamp;pressure;altitude;pressure_sealevel;temperature;humidity
11830;BME280;5972;42.134;24.718;2023-08-31T00:02:02;98827.22;;;25.40;53.00
11830;BME280;5972;42.134;24.718;2023-08-31T00:04:29;98838.31;;;25.40;52.61
11830;BME280;5972;42.134;24.718;2023-08-31T00:06:56;98843.81;;;25.31;53.07
11830;BME280;5972;42.134;24.718;2023-08-31T00:09:23;98839.06;;;25.31;53.21
11830;BME280;5972;42.134;24.718;2023-08-31T00:11:50;98839.53;;;25.30;53.37
11830;BME280;5972;42.134;24.718;2023-08-31T00:14:17;98837.06;;;25.22;53.86
11830;BME280;5972;42.134;24.718;2023-08-31T00:16:44;98842.88;;;25.24;53.30
11830;BME280;5972;42.134;24.718;2023-08-31T00:19:14;98842.25;;;25.20;53.94
11830;BME280;5972;42.134;24.718;2023-08-31T00:21:41;98842.88;;;25.15;53.90
11830;BME280;5972;42.134;24.718;2023-08-31T00:24:08;98841.66;;;25.16;53.63
11830;BME280;5972;42.134;24.718;2023-08-31T00:26:35;98841.94;;;25.09;53.97
11830;BME280;5972;42.134;24.718;2023-08-31T00:29:06;98841.16;;;25.00;54.17
11830;BME280;5972;42.134;24.718;2023-08-31T00:31:32;98844.69;;;25.00;54.04
11830;BME280;5972;42.134;24.718;2023-08-31T00:33:59;98856.56;;;25.10;53.87
11830;BME280;5972;42.134;24.718;2023-08-31T00:36:31;98848.56;;;25.12;53.63
11830;BME280;5972;42.134;24.718;2023-08-31T00:38:58;98856.53;;;25.01;53.96
11830;BME280;5972;42.134;24.718;2023-08-31T00:41:31;98859.47;;;25.06;54.39
11830;BME280;5972;42.134;24.718;2023-08-31T00:43:57;98858.38;;;25.04;54.16
11830;BME280;5972;42.134;24.718;2023-08-31T00:46:25;98851.59;;;24.96;54.36
11830;BME280;5972;42.134;24.718;2023-08-31T00:48:53;98856.53;;;25.01;54.33
11830;BME280;5972;42.134;24.718;2023-08-31T00:51:20;98860.06;;;25.01;55.49
11830;BME280;5972;42.134;24.718;2023-08-31T00:53:48;98856.97;;;24.99;54.48
11830;BME280;5972;42.134;24.718;2023-08-31T00:56:18;98854.50;;;24.92;54.91
11830;BME280;5972;42.134;24.718;2023-08-31T00:58:45;98860.03;;;24.92;55.04
11830;BME280;5972;42.134;24.718;2023-08-31T01:01:19;98862.97;;;24.98;54.13
11830;BME280;5972;42.134;24.718;2023-08-31T01:03:53;98864.84;;;25.01;54.24
11830;BME280;5972;42.134;24.718;2023-08-31T01:06:30;98862.09;;;25.10;53.84
11830;BME280;5972;42.134;24.718;2023-08-31T01:09:13;98861.19;;;25.13;53.23
11830;BME280;5972;42.134;24.718;2023-08-31T01:11:48;98842.88;;;25.06;53.53
11830;BME280;5972;42.134;24.718;2023-08-31T01:14:23;98866.06;;;25.09;53.81
11830;BME280;5972;42.134;24.718;2023-08-31T01:16:53;98872.09;;;25.16;52.94
11830;BME280;5972;42.134;24.718;2023-08-31T01:19:34;98877.66;;;25.16;52.71
11830;BME280;5972;42.134;24.718;2023-08-31T01:22:11;98882.41;;;25.16;53.07
11830;BME280;5972;42.134;24.718;2023-08-31T01:24:40;98882.25;;;25.19;53.13
11830;BME280;5972;42.134;24.718;2023-08-31T01:27:07;98875.03;;;25.22;52.40
11830;BME280;5972;42.134;24.718;2023-08-31T01:29:34;98883.06;;;25.29;52.08
11830;BME280;5972;42.134;24.718;2023-08-31T01:32:05;98872.88;;;25.17;52.71
11830;BME280;5972;42.134;24.718;2023-08-31T01:34:32;98883.34;;;25.31;52.87
11830;BME280;5972;42.134;24.718;2023-08-31T01:37:00;98888.72;;;25.16;53.71
11830;BME280;5972;42.134;24.718;2023-08-31T01:39:33;98889.50;;;25.26;53.13
11830;BME280;5972;42.134;24.718;2023-08-31T01:42:06;98896.41;;;25.21;53.13
11830;BME280;5972;42.134;24.718;2023-08-31T01:44:34;98905.06;;;25.23;53.29
11830;BME280;5972;42.134;24.718;2023-08-31T01:47:03;98900.41;;;25.20;53.66
11830;BME280;5972;42.134;24.718;2023-08-31T01:49:36;98904.09;;;25.17;54.28
11830;BME280;5972;42.134;24.718;2023-08-31T01:52:03;98903.50;;;25.22;53.97
11830;BME280;5972;42.134;24.718;2023-08-31T01:54:31;98892.53;;;25.10;53.85
11830;BME280;5972;42.134;24.718;2023-08-31T01:56:57;98914.56;;;25.22;53.31
11830;BME280;5972;42.134;24.718;2023-08-31T01:59:26;98911.34;;;25.24;53.25
11830;BME280;5972;42.134;24.718;2023-08-31T02:01:53;98917.50;;;25.28;53.28
11830;BME280;5972;42.134;24.718;2023-08-31T02:04:19;98913.97;;;25.27;52.90
11830;BME280;5972;42.134;24.718;2023-08-31T02:06:46;98912.25;;;25.21;53.09
11830;BME280;5972;42.134;24.718;2023-08-31T02:09:13;98912.09;;;25.24;52.47
11830;BME280;5972;42.134;24.718;2023-08-31T02:11:40;98916.25;;;25.20;53.26
11830;BME280;5972;42.134;24.718;2023-08-31T02:14:07;98915.19;;;25.17;52.68
11830;BME280;5972;42.134;24.718;2023-08-31T02:16:35;98909.81;;;25.23;52.10
11830;BME280;5972;42.134;24.718;2023-08-31T02:19:02;98918.91;;;25.33;51.81
11830;BME280;5972;42.134;24.718;2023-08-31T02:21:29;98910.75;;;25.29;51.89
11830;BME280;5972;42.134;24.718;2023-08-31T02:23:55;98920.41;;;25.24;52.14
11830;BME280;5972;42.134;24.718;2023-08-31T02:26:22;98917.81;;;25.30;52.11
11830;BME280;5972;42.134;24.718;2023-08-31T02:28:49;98919.34;;;25.22;52.46
11830;BME280;5972;42.134;24.718;2023-08-31T02:31:17;98918.25;;;25.19;52.58
11830;BME280;5972;42.134;24.718;2023-08-31T02:33:45;98921.31;;;25.12;52.93
11830;BME280;5972;42.134;24.718;2023-08-31T02:36:12;98924.19;;;25.00;53.32
11830;BME280;5972;42.134;24.718;2023-08-31T02:38:38;98917.00;;;25.11;53.04
11830;BME280;5972;42.134;24.718;2023-08-31T02:41:05;98929.31;;;25.10;53.28
11830;BME280;5972;42.134;24.718;2023-08-31T02:43:32;98926.03;;;25.03;53.47
11830;BME280;5972;42.134;24.718;2023-08-31T02:45:59;98927.91;;;25.06;52.91
11830;BME280;5972;42.134;24.718;2023-08-31T02:48:26;98935.09;;;25.03;52.90
11830;BME280;5972;42.134;24.718;2023-08-31T02:50:57;98925.28;;;24.80;53.71
11830;BME280;5972;42.134;24.718;2023-08-31T02:53:26;98925.53;;;24.64;54.39
11830;BME280;5972;42.134;24.718;2023-08-31T02:55:53;98924.47;;;24.71;54.31
11830;BME280;5972;42.134;24.718;2023-08-31T02:58:19;98950.84;;;24.84;53.77
11830;BME280;5972;42.134;24.718;2023-08-31T03:00:46;98940.44;;;24.89;53.87
11830;BME280;5972;42.134;24.718;2023-08-31T03:03:14;98932.34;;;24.72;54.41
11830;BME280;5972;42.134;24.718;2023-08-31T03:05:41;98951.06;;;24.68;54.75
11830;BME280;5972;42.134;24.718;2023-08-31T03:08:09;98957.28;;;24.29;56.65
11830;BME280;5972;42.134;24.718;2023-08-31T03:10:36;98960.41;;;24.40;56.73
11830;BME280;5972;42.134;24.718;2023-08-31T03:13:04;98962.28;;;24.43;56.64
11830;BME280;5972;42.134;24.718;2023-08-31T03:15:32;98964.41;;;24.39;56.74
11830;BME280;5972;42.134;24.718;2023-08-31T03:17:59;98952.03;;;24.31;57.44
11830;BME280;5972;42.134;24.718;2023-08-31T03:20:26;98961.25;;;24.28;58.11
11830;BME280;5972;42.134;24.718;2023-08-31T03:22:52;98943.69;;;24.22;57.89
11830;BME280;5972;42.134;24.718;2023-08-31T03:25:21;98970.44;;;24.25;58.75
11830;BME280;5972;42.134;24.718;2023-08-31T03:27:47;98966.66;;;24.31;58.22
11830;BME280;5972;42.134;24.718;2023-08-31T03:30:14;98960.22;;;24.34;58.30
11830;BME280;5972;42.134;24.718;2023-08-31T03:32:41;98953.84;;;24.25;59.18
11830;BME280;5972;42.134;24.718;2023-08-31T03:35:08;98963.03;;;24.22;59.11
11830;BME280;5972;42.134;24.718;2023-08-31T03:37:35;98942.91;;;24.21;58.72
11830;BME280;5972;42.134;24.718;2023-08-31T03:40:02;98952.38;;;24.33;59.15
11830;BME280;5972;42.134;24.718;2023-08-31T03:42:33;98957.50;;;24.22;59.52
11830;BME280;5972;42.134;24.718;2023-08-31T03:45:00;98956.88;;;24.18;59.74
11830;BME280;5972;42.134;24.718;2023-08-31T03:47:26;98971.72;;;24.33;59.21
11830;BME280;5972;42.134;24.718;2023-08-31T03:49:54;98968.00;;;24.14;59.49
11830;BME280;5972;42.134;24.718;2023-08-31T03:52:20;98966.19;;;23.98;59.63
11830;BME280;5972;42.134;24.718;2023-08-31T03:54:48;98971.88;;;24.17;59.64
11830;BME280;5972;42.134;24.718;2023-08-31T03:57:16;98945.88;;;23.92;59.37
11830;BME280;5972;42.134;24.718;2023-08-31T03:59:44;98984.94;;;24.16;58.33
11830;BME280;5972;42.134;24.718;2023-08-31T04:02:11;98985.03;;;24.25;57.82
11830;BME280;5972;42.134;24.718;2023-08-31T04:04:37;98986.09;;;24.40;57.64
11830;BME280;5972;42.134;24.718;2023-08-31T04:07:05;98977.91;;;24.37;57.12
11830;BME280;5972;42.134;24.718;2023-08-31T04:09:32;98986.31;;;24.55;56.60
11830;BME280;5972;42.134;24.718;2023-08-31T04:11:59;98988.75;;;24.75;55.45
11830;BME280;5972;42.134;24.718;2023-08-31T04:14:26;98991.41;;;24.78;55.84
11830;BME280;5972;42.134;24.718;2023-08-31T04:16:54;99004.59;;;24.96;54.97
11830;BME280;5972;42.134;24.718;2023-08-31T04:19:21;99008.81;;;25.10;54.39
11830;BME280;5972;42.134;24.718;2023-08-31T04:21:47;99015.97;;;24.98;54.63
11830;BME280;5972;42.134;24.718;2023-08-31T04:24:14;99014.97;;;25.14;53.71
11830;BME280;5972;42.134;24.718;2023-08-31T04:26:42;99025.97;;;25.26;53.30
11830;BME280;5972;42.134;24.718;2023-08-31T04:29:10;99029.59;;;25.54;52.12
11830;BME280;5972;42.134;24.718;2023-08-31T04:31:36;99034.31;;;25.76;51.25
11830;BME280;5972;42.134;24.718;2023-08-31T04:34:05;99023.53;;;25.78;50.47
11830;BME280;5972;42.134;24.718;2023-08-31T04:36:32;99036.69;;;26.04;50.18
11830;BME280;5972;42.134;24.718;2023-08-31T04:38:59;99036.56;;;26.26;49.23
11830;BME280;5972;42.134;24.718;2023-08-31T04:41:26;99039.50;;;26.50;48.57
11830;BME280;5972;42.134;24.718;2023-08-31T04:43:52;99033.16;;;26.22;49.21
11830;BME280;5972;42.134;24.718;2023-08-31T04:46:19;99039.50;;;26.50;48.90
11830;BME280;5972;42.134;24.718;2023-08-31T04:48:46;99040.72;;;26.95;47.52
11830;BME280;5972;42.134;24.718;2023-08-31T04:51:32;99046.72;;;26.84;47.43
11830;BME280;5972;42.134;24.718;2023-08-31T04:53:59;99045.03;;;26.96;47.37
11830;BME280;5972;42.134;24.718;2023-08-31T04:56:30;99042.66;;;27.21;46.64
11830;BME280;5972;42.134;24.718;2023-08-31T04:58:57;99060.66;;;27.77;44.81
11830;BME280;5972;42.134;24.718;2023-08-31T05:01:24;99063.81;;;27.94;44.20
11830;BME280;5972;42.134;24.718;2023-08-31T05:03:51;99063.44;;;28.48;42.97
11830;BME280;5972;42.134;24.718;2023-08-31T05:06:17;99064.31;;;29.08;41.29
11830;BME280;5972;42.134;24.718;2023-08-31T05:08:47;99061.50;;;30.62;38.39
11830;BME280;5972;42.134;24.718;2023-08-31T05:11:14;99066.22;;;31.59;36.32
11830;BME280;5972;42.134;24.718;2023-08-31T05:13:40;99062.16;;;32.62;34.70
11830;BME280;5972;42.134;24.718;2023-08-31T05:16:08;99069.13;;;33.61;33.18
11830;BME280;5972;42.134;24.718;2023-08-31T05:18:35;99071.06;;;34.28;32.03
11830;BME280;5972;42.134;24.718;2023-08-31T05:21:02;99064.53;;;35.37;30.77
11830;BME280;5972;42.134;24.718;2023-08-31T05:23:30;99060.16;;;35.06;30.07
11830;BME280;5972;42.134;24.718;2023-08-31T05:25:58;99071.75;;;36.11;29.18
11830;BME280;5972;42.134;24.718;2023-08-31T05:28:26;99052.31;;;36.50;28.12
11830;BME280;5972;42.134;24.718;2023-08-31T05:30:55;99065.56;;;36.93;27.98
11830;BME280;5972;42.134;24.718;2023-08-31T05:33:22;99076.66;;;37.68;27.14
11830;BME280;5972;42.134;24.718;2023-08-31T05:35:51;99084.59;;;37.69;26.81
11830;BME280;5972;42.134;24.718;2023-08-31T05:38:17;99082.97;;;37.74;26.68
11830;BME280;5972;42.134;24.718;2023-08-31T05:40:44;99079.28;;;37.66;26.89
11830;BME280;5972;42.134;24.718;2023-08-31T05:43:13;99085.53;;;36.95;27.09
11830;BME280;5972;42.134;24.718;2023-08-31T05:45:40;99083.59;;;37.03;26.97
11830;BME280;5972;42.134;24.718;2023-08-31T05:48:07;99081.09;;;36.62;27.24
11830;BME280;5972;42.134;24.718;2023-08-31T05:50:34;99084.38;;;37.35;26.60
11830;BME280;5972;42.134;24.718;2023-08-31T05:53:02;99090.38;;;37.77;26.11
11830;BME280;5972;42.134;24.718;2023-08-31T05:55:29;99093.28;;;37.84;25.99
11830;BME280;5972;42.134;24.718;2023-08-31T05:57:55;99094.84;;;38.25;25.69
11830;BME280;5972;42.134;24.718;2023-08-31T06:00:24;99095.28;;;38.29;25.48
11830;BME280;5972;42.134;24.718;2023-08-31T06:02:50;99091.88;;;37.65;26.15
11830;BME280;5972;42.134;24.718;2023-08-31T06:05:17;99086.66;;;37.69;25.85
11830;BME280;5972;42.134;24.718;2023-08-31T06:07:44;99100.63;;;38.06;25.64
11830;BME280;5972;42.134;24.718;2023-08-31T06:10:11;99091.25;;;38.85;24.60
11830;BME280;5972;42.134;24.718;2023-08-31T06:12:40;99095.94;;;38.22;24.88
11830;BME280;5972;42.134;24.718;2023-08-31T06:15:07;99090.97;;;37.25;26.30
11830;BME280;5972;42.134;24.718;2023-08-31T06:17:35;99091.25;;;36.89;26.82
11830;BME280;5972;42.134;24.718;2023-08-31T06:20:02;99099.97;;;38.26;25.78
11830;BME280;5972;42.134;24.718;2023-08-31T06:22:31;99098.50;;;38.73;24.58
11830;BME280;5972;42.134;24.718;2023-08-31T06:24:58;99107.72;;;39.41;24.65
11830;BME280;5972;42.134;24.718;2023-08-31T06:27:25;99106.38;;;39.34;24.59
11830;BME280;5972;42.134;24.718;2023-08-31T06:29:51;99102.34;;;40.00;23.39
11830;BME280;5972;42.134;24.718;2023-08-31T06:32:18;99110.13;;;40.35;23.06
11830;BME280;5972;42.134;24.718;2023-08-31T06:34:46;99095.44;;;40.16;23.22
11830;BME280;5972;42.134;24.718;2023-08-31T06:37:13;99113.94;;;38.72;24.19
11830;BME280;5972;42.134;24.718;2023-08-31T06:39:40;99114.19;;;38.08;25.61
11830;BME280;5972;42.134;24.718;2023-08-31T06:42:07;99113.50;;;37.75;25.67
11830;BME280;5972;42.134;24.718;2023-08-31T06:44:34;99112.72;;;37.75;25.89
11830;BME280;5972;42.134;24.718;2023-08-31T06:47:00;99109.28;;;37.82;25.47
11830;BME280;5972;42.134;24.718;2023-08-31T06:49:28;99085.72;;;38.92;24.42
11830;BME280;5972;42.134;24.718;2023-08-31T06:51:59;99113.44;;;38.07;25.44
11830;BME280;5972;42.134;24.718;2023-08-31T06:54:27;99112.19;;;37.13;26.49
11830;BME280;5972;42.134;24.718;2023-08-31T06:56:54;99121.06;;;36.66;26.96
11830;BME280;5972;42.134;24.718;2023-08-31T06:59:21;99112.78;;;36.49;27.38
11830;BME280;5972;42.134;24.718;2023-08-31T07:01:48;99106.22;;;35.68;28.30
11830;BME280;5972;42.134;24.718;2023-08-31T07:04:15;99121.28;;;35.00;29.27
11830;BME280;5972;42.134;24.718;2023-08-31T07:06:42;99116.34;;;35.12;29.06
11830;BME280;5972;42.134;24.718;2023-08-31T07:09:10;99110.75;;;34.71;30.00
11830;BME280;5972;42.134;24.718;2023-08-31T07:11:37;99108.53;;;34.47;29.98
11830;BME280;5972;42.134;24.718;2023-08-31T07:14:03;99117.56;;;34.06;30.42
11830;BME280;5972;42.134;24.718;2023-08-31T07:16:30;99103.78;;;33.03;31.48
11830;BME280;5972;42.134;24.718;2023-08-31T07:18:57;99106.66;;;33.36;31.29
11830;BME280;5972;42.134;24.718;2023-08-31T07:21:24;99101.03;;;33.25;31.57
11830;BME280;5972;42.134;24.718;2023-08-31T07:23:52;99110.47;;;33.27;31.95
11830;BME280;5972;42.134;24.718;2023-08-31T07:26:21;99107.16;;;33.51;31.80
11830;BME280;5972;42.134;24.718;2023-08-31T07:28:48;99107.66;;;33.27;31.96
11830;BME280;5972;42.134;24.718;2023-08-31T07:31:15;99108.97;;;33.32;31.61
11830;BME280;5972;42.134;24.718;2023-08-31T07:33:42;99108.63;;;32.96;32.47
11830;BME280;5972;42.134;24.718;2023-08-31T07:36:09;99102.31;;;33.35;31.53
11830;BME280;5972;42.134;24.718;2023-08-31T07:38:36;99098.25;;;33.36;31.94
11830;BME280;5972;42.134;24.718;2023-08-31T07:41:02;99111.00;;;33.70;31.47
11830;BME280;5972;42.134;24.718;2023-08-31T07:43:32;99110.72;;;33.68;31.34
11830;BME280;5972;42.134;24.718;2023-08-31T07:45:58;99110.72;;;33.24;31.36
11830;BME280;5972;42.134;24.718;2023-08-31T07:48:25;99103.06;;;33.19;31.33
11830;BME280;5972;42.134;24.718;2023-08-31T07:50:52;99105.09;;;33.63;30.75
11830;BME280;5972;42.134;24.718;2023-08-31T07:53:19;99103.34;;;33.49;31.48
11830;BME280;5972;42.134;24.718;2023-08-31T07:55:52;99105.34;;;33.93;30.49
11830;BME280;5972;42.134;24.718;2023-08-31T07:58:20;99096.81;;;34.37;30.08
11830;BME280;5972;42.134;24.718;2023-08-31T08:00:48;99102.38;;;34.54;29.82
11830;BME280;5972;42.134;24.718;2023-08-31T08:03:15;99096.44;;;34.63;30.37
11830;BME280;5972;42.134;24.718;2023-08-31T08:05:42;99090.53;;;34.72;30.31
11830;BME280;5972;42.134;24.718;2023-08-31T08:08:09;99091.56;;;34.69;28.94
11830;BME280;5972;42.134;24.718;2023-08-31T08:10:36;99090.69;;;34.33;30.02
11830;BME280;5972;42.134;24.718;2023-08-31T08:13:03;99086.75;;;33.34;31.00
11830;BME280;5972;42.134;24.718;2023-08-31T08:15:30;99080.06;;;34.04;30.30
11830;BME280;5972;42.134;24.718;2023-08-31T08:17:58;99080.13;;;34.56;29.78
11830;BME280;5972;42.134;24.718;2023-08-31T08:20:26;99082.91;;;34.56;29.98
11830;BME280;5972;42.134;24.718;2023-08-31T08:22:53;99088.06;;;34.52;29.75
11830;BME280;5972;42.134;24.718;2023-08-31T08:25:20;99077.72;;;34.82;29.37
11830;BME280;5972;42.134;24.718;2023-08-31T08:27:47;99072.78;;;34.94;29.24
11830;BME280;5972;42.134;24.718;2023-08-31T08:30:14;99083.66;;;35.44;28.51
11830;BME280;5972;42.134;24.718;2023-08-31T08:32:41;99077.53;;;35.10;28.83
11830;BME280;5972;42.134;24.718;2023-08-31T08:35:10;99077.75;;;35.48;28.48
11830;BME280;5972;42.134;24.718;2023-08-31T08:37:36;99072.94;;;35.07;28.43
11830;BME280;5972;42.134;24.718;2023-08-31T08:40:04;99071.06;;;35.51;27.86
11830;BME280;5972;42.134;24.718;2023-08-31T08:42:31;99078.44;;;35.24;28.40
11830;BME280;5972;42.134;24.718;2023-08-31T08:45:01;99074.25;;;35.36;28.18
11830;BME280;5972;42.134;24.718;2023-08-31T08:47:28;99073.00;;;34.96;28.84
11830;BME280;5972;42.134;24.718;2023-08-31T08:49:58;99071.34;;;35.47;28.32
11830;BME280;5972;42.134;24.718;2023-08-31T08:52:27;99071.13;;;35.99;27.75
11830;BME280;5972;42.134;24.718;2023-08-31T08:54:55;99061.19;;;36.17;27.27
11830;BME280;5972;42.134;24.718;2023-08-31T08:57:22;99071.06;;;35.80;26.96
11830;BME280;5972;42.134;24.718;2023-08-31T08:59:49;99067.22;;;35.18;28.51
11830;BME280;5972;42.134;24.718;2023-08-31T09:02:16;99060.59;;;35.21;28.38
11830;BME280;5972;42.134;24.718;2023-08-31T09:04:43;99069.28;;;36.02;26.84
11830;BME280;5972;42.134;24.718;2023-08-31T09:07:09;99069.19;;;35.89;26.78
11830;BME280;5972;42.134;24.718;2023-08-31T09:09:49;99049.66;;;36.39;26.45
11830;BME280;5972;42.134;24.718;2023-08-31T09:12:16;99066.13;;;36.73;26.27
11830;BME280;5972;42.134;24.718;2023-08-31T09:14:43;99049.22;;;36.11;26.59
11830;BME280;5972;42.134;24.718;2023-08-31T09:17:10;99061.59;;;35.78;26.92
11830;BME280;5972;42.134;24.718;2023-08-31T09:19:37;99057.13;;;35.34;27.32
11830;BME280;5972;42.134;24.718;2023-08-31T09:22:04;99060.59;;;34.22;28.88
11830;BME280;5972;42.134;24.718;2023-08-31T09:24:40;99048.63;;;34.11;28.34
11830;BME280;5972;42.134;24.718;2023-08-31T09:27:10;99061.25;;;33.71;29.08
11830;BME280;5972;42.134;24.718;2023-08-31T09:29:38;99058.44;;;33.76;29.06
11830;BME280;5972;42.134;24.718;2023-08-31T09:32:05;99068.38;;;33.55;29.31
11830;BME280;5972;42.134;24.718;2023-08-31T09:34:36;99054.28;;;33.94;29.25
11830;BME280;5972;42.134;24.718;2023-08-31T09:37:06;99054.16;;;34.39;28.24
11830;BME280;5972;42.134;24.718;2023-08-31T09:39:37;99048.34;;;35.13;27.46
11830;BME280;5972;42.134;24.718;2023-08-31T09:42:05;99057.84;;;35.40;27.31
11830;BME280;5972;42.134;24.718;2023-08-31T09:44:33;99050.25;;;35.59;27.01
11830;BME280;5972;42.134;24.718;2023-08-31T09:47:00;99054.28;;;35.69;26.70
11830;BME280;5972;42.134;24.718;2023-08-31T09:49:29;99049.00;;;35.84;26.89
11830;BME280;5972;42.134;24.718;2023-08-31T09:51:57;99052.84;;;36.30;26.31
11830;BME280;5972;42.134;24.718;2023-08-31T09:54:29;99059.75;;;36.29;26.20
11830;BME280;5972;42.134;24.718;2023-08-31T09:56:58;99061.41;;;36.19;26.45
11830;BME280;5972;42.134;24.718;2023-08-31T09:59:26;99057.63;;;35.92;26.11
11830;BME280;5972;42.134;24.718;2023-08-31T10:01:55;99054.50;;;36.20;25.90
11830;BME280;5972;42.134;24.718;2023-08-31T10:04:22;99048.47;;;34.96;27.48
11830;BME280;5972;42.134;24.718;2023-08-31T10:06:50;99051.88;;;34.37;28.41
11830;BME280;5972;42.134;24.718;2023-08-31T10:09:18;99055.06;;;33.95;28.56
11830;BME280;5972;42.134;24.718;2023-08-31T10:11:46;99048.09;;;34.18;28.19
11830;BME280;5972;42.134;24.718;2023-08-31T10:14:13;99059.59;;;34.26;28.42
11830;BME280;5972;42.134;24.718;2023-08-31T10:16:44;99052.88;;;34.40;28.00
11830;BME280;5972;42.134;24.718;2023-08-31T10:19:12;99051.44;;;34.69;28.34
11830;BME280;5972;42.134;24.718;2023-08-31T10:21:40;99048.75;;;34.93;28.68
11830;BME280;5972;42.134;24.718;2023-08-31T10:24:09;99042.63;;;34.89;27.82
11830;BME280;5972;42.134;24.718;2023-08-31T10:26:36;99048.28;;;35.24;27.65
11830;BME280;5972;42.134;24.718;2023-08-31T10:29:03;99042.31;;;35.33;27.43
11830;BME280;5972;42.134;24.718;2023-08-31T10:31:30;99039.72;;;35.65;26.56
11830;BME280;5972;42.134;24.718;2023-08-31T10:33:59;99037.91;;;35.92;26.69
11830;BME280;5972;42.134;24.718;2023-08-31T10:36:37;99040.09;;;35.80;26.81
11830;BME280;5972;42.134;24.718;2023-08-31T10:39:06;99040.19;;;35.94;27.08
11830;BME280;5972;42.134;24.718;2023-08-31T10:41:35;99041.72;;;36.56;26.17
11830;BME280;5972;42.134;24.718;2023-08-31T10:44:02;99048.16;;;37.07;25.74
11830;BME280;5972;42.134;24.718;2023-08-31T10:46:33;99044.00;;;37.27;25.29
11830;BME280;5972;42.134;24.718;2023-08-31T10:49:01;99049.59;;;37.14;25.23
11830;BME280;5972;42.134;24.718;2023-08-31T10:51:43;99054.34;;;37.06;25.33
11830;BME280;5972;42.134;24.718;2023-08-31T10:54:12;99061.56;;;37.20;25.31
11830;BME280;5972;42.134;24.718;2023-08-31T10:57:09;99052.09;;;37.18;24.73
11830;BME280;5972;42.134;24.718;2023-08-31T10:59:51;99055.97;;;36.27;26.25
11830;BME280;5972;42.134;24.718;2023-08-31T11:02:41;99050.78;;;36.49;26.20
11830;BME280;5972;42.134;24.718;2023-08-31T11:05:09;99052.59;;;36.47;26.22
11830;BME280;5972;42.134;24.718;2023-08-31T11:07:38;99048.22;;;36.08;25.93
11830;BME280;5972;42.134;24.718;2023-08-31T11:10:11;99047.03;;;36.41;26.22
11830;BME280;5972;42.134;24.718;2023-08-31T11:12:38;99048.66;;;36.55;26.32
11830;BME280;5972;42.134;24.718;2023-08-31T11:15:06;99052.00;;;36.54;25.86
11830;BME280;5972;42.134;24.718;2023-08-31T11:17:33;99045.59;;;36.53;26.38
11830;BME280;5972;42.134;24.718;2023-08-31T11:20:01;99043.03;;;36.12;26.43
11830;BME280;5972;42.134;24.718;2023-08-31T11:22:30;99036.00;;;36.00;26.49
11830;BME280;5972;42.134;24.718;2023-08-31T11:24:59;99041.34;;;36.28;26.11
11830;BME280;5972;42.134;24.718;2023-08-31T11:27:26;99033.59;;;36.72;25.73
11830;BME280;5972;42.134;24.718;2023-08-31T11:29:53;99037.97;;;36.86;25.28
11830;BME280;5972;42.134;24.718;2023-08-31T11:32:23;99009.53;;;36.33;26.21
11830;BME280;5972;42.134;24.718;2023-08-31T11:34:50;99036.78;;;36.81;25.37
11830;BME280;5972;42.134;24.718;2023-08-31T11:37:17;99030.44;;;36.75;25.64
11830;BME280;5972;42.134;24.718;2023-08-31T11:39:49;99026.69;;;36.86;25.59
11830;BME280;5972;42.134;24.718;2023-08-31T11:42:19;99026.56;;;36.22;26.26
11830;BME280;5972;42.134;24.718;2023-08-31T11:44:46;99017.59;;;35.51;26.76
11830;BME280;5972;42.134;24.718;2023-08-31T11:47:15;99022.75;;;36.19;26.59
11830;BME280;5972;42.134;24.718;2023-08-31T11:49:42;99000.38;;;36.64;26.33
11830;BME280;5972;42.134;24.718;2023-08-31T11:52:10;98994.56;;;36.76;25.61
11830;BME280;5972;42.134;24.718;2023-08-31T11:54:39;99011.63;;;36.46;26.10
11830;BME280;5972;42.134;24.718;2023-08-31T11:57:07;99013.59;;;35.89;26.80
11830;BME280;5972;42.134;24.718;2023-08-31T11:59:37;99012.44;;;34.95;27.68
11830;BME280;5972;42.134;24.718;2023-08-31T12:02:06;99013.63;;;34.23;28.46
11830;BME280;5972;42.134;24.718;2023-08-31T12:04:33;99017.56;;;33.98;28.60
11830;BME280;5972;42.134;24.718;2023-08-31T12:07:07;99012.00;;;33.64;29.04
11830;BME280;5972;42.134;24.718;2023-08-31T12:09:34;99007.44;;;33.45;28.98
11830;BME280;5972;42.134;24.718;2023-08-31T12:12:02;98999.78;;;33.56;28.69
11830;BME280;5972;42.134;24.718;2023-08-31T12:14:30;99007.44;;;33.50;28.96
11830;BME280;5972;42.134;24.718;2023-08-31T12:17:02;98994.94;;;33.51;29.04
11830;BME280;5972;42.134;24.718;2023-08-31T12:19:29;99000.78;;;33.75;28.83
11830;BME280;5972;42.134;24.718;2023-08-31T12:21:57;98995.63;;;33.91;28.47
11830;BME280;5972;42.134;24.718;2023-08-31T12:24:24;99002.16;;;34.21;28.41
11830;BME280;5972;42.134;24.718;2023-08-31T12:26:51;99001.88;;;34.30;28.40
11830;BME280;5972;42.134;24.718;2023-08-31T12:29:20;98999.56;;;34.75;27.77
11830;BME280;5972;42.134;24.718;2023-08-31T12:31:47;98995.56;;;34.95;27.86
11830;BME280;5972;42.134;24.718;2023-08-31T12:34:16;98996.72;;;35.40;27.53
11830;BME280;5972;42.134;24.718;2023-08-31T12:36:43;98993.63;;;35.68;26.65
11830;BME280;5972;42.134;24.718;2023-08-31T12:39:10;98992.88;;;35.43;27.47
11830;BME280;5972;42.134;24.718;2023-08-31T12:41:37;98993.50;;;35.79;27.08
11830;BME280;5972;42.134;24.718;2023-08-31T12:44:04;98993.41;;;35.66;26.79
11830;BME280;5972;42.134;24.718;2023-08-31T12:46:31;98996.63;;;35.76;27.37
11830;BME280;5972;42.134;24.718;2023-08-31T12:48:59;98992.16;;;35.86;27.54
11830;BME280;5972;42.134;24.718;2023-08-31T12:51:28;98982.06;;;35.48;28.24
11830;BME280;5972;42.134;24.718;2023-08-31T12:53:55;98975.44;;;35.45;28.42
11830;BME280;5972;42.134;24.718;2023-08-31T12:56:22;98949.88;;;34.89;27.34
11830;BME280;5972;42.134;24.718;2023-08-31T12:58:49;98984.44;;;34.43;27.46
11830;BME280;5972;42.134;24.718;2023-08-31T13:01:17;98974.22;;;34.81;27.77
11830;BME280;5972;42.134;24.718;2023-08-31T13:03:43;98969.94;;;35.04;26.84
11830;BME280;5972;42.134;24.718;2023-08-31T13:06:10;98973.47;;;35.10;27.05